Airfield :
LOGIN :

Register | Disclaimer

   EN    FR    IT 

 










Legend :    VFR   Marginal VFR   IFR   Intensive IFR   Very Intensive IFR
Visi :
Ceiling :
>= 8 km
>= 3000ft
5 to 8 km
1000 to 3000 ft
1500m to 5 km
500 to 1000 ft
800 to 1500m
200 to 500 ft
< 800m
< 200 ft
Symbols :   Thunderstorms  Fog  Heavy snow  Heavy precipitations  Wind > 20 kt
SIGMETs :     Misc.  Thunderstorms  Icing  Turbulence  Mountain Waves  Volcanic Ashes







- Airport Elevation : 326 ft
- IATA code : LCG
- Download approach charts


LECO - A Coruna

CURRENT METAR :
  • 301600Z 30015G28KT 250V350 9999 SCT030 12/03 Q1013 WS R21 TEMPO SHRA SCT025TCU

EXPIRED METARs :
  • 301530Z 32016G31KT 240V020 9999 SCT030 12/04 Q1012 WS R21 TEMPO SHRA SCT025TCU
  • 301500Z 31016G27KT 250V020 9999 SCT030TCU 12/04 Q1012 WS R21 TEMPO SHRA
  • 301430Z 31014G25KT 270V360 9999 SCT030TCU 11/05 Q1011 WS R21 TEMPO SHRA
  • 301400Z 28017G30KT 230V330 9999 FEW025CB SCT030 12/03 Q1011 WS R21 TEMPO SHRA

TAF TAF LECO
Valid from the 30 at 15:00 until the 01 at 15:00 UTC


301400Z 3015/0115 29009KT 9999 SCT025 SCT040 TX17/0114Z TN06/0105Z
TEMPO 3015/3019 31015G25KT RA SHRA SCT025TCU
PROB40
TEMPO 3015/3018 30020G35KT
TEMPO 0112/0115 24015G25KT
No reported NOTAMs for that airfield.
1 SIGMET reported for the Madrid FIR (LECM) :
 
Severe mountain waves
LECM SIGMET 6 VALID 301337/301700 LEVA
LECM MADRID FIR/UIR SEV MTW OBS AT 1337Z N OF LINE N4250 W00120 - N4230 W00020 FL060/350 STNR NC=



MET'MAP, your aeronautical weather chart ! - Copyright ORBIFLY December 2007 - Disclaimer

ORBIFLY MET'MAP TEAM :

Programming & Development : Alexandra Zaïnal
Concept & Development : Baudouin d'Aumeries
Co-Development & Prog : Marc-Olivier Méhu
Technical & hardware support : Manuel Goepfert

Contact : metmap@orbifly.com




SOURCES & CREDITS :

   NOAA